sensor_id;sensor_type;location;lat;lon;timestamp;pressure;altitude;pressure_sealevel;temperature;humidity
49455;BME280;49011;64.658;21.218;2022-08-19T00:01:29;101812.28;;;11.23;100.00
49455;BME280;49011;64.658;21.218;2022-08-19T00:03:57;101806.64;;;11.41;100.00
49455;BME280;49011;64.658;21.218;2022-08-19T00:06:24;101799.44;;;11.05;100.00
49455;BME280;49011;64.658;21.218;2022-08-19T00:08:51;101798.96;;;11.46;100.00
49455;BME280;49011;64.658;21.218;2022-08-19T00:11:19;101799.96;;;11.14;100.00
49455;BME280;49011;64.658;21.218;2022-08-19T00:13:47;101801.18;;;11.24;100.00
49455;BME280;49011;64.658;21.218;2022-08-19T00:16:14;101808.00;;;11.54;100.00
49455;BME280;49011;64.658;21.218;2022-08-19T00:18:41;101809.04;;;11.77;100.00
49455;BME280;49011;64.658;21.218;2022-08-19T00:21:08;101795.73;;;11.67;100.00
49455;BME280;49011;64.658;21.218;2022-08-19T00:23:36;101785.31;;;11.62;100.00
49455;BME280;49011;64.658;21.218;2022-08-19T00:26:04;101788.62;;;11.80;100.00
49455;BME280;49011;64.658;21.218;2022-08-19T00:28:32;101791.97;;;11.64;100.00
49455;BME280;49011;64.658;21.218;2022-08-19T00:31:00;101792.71;;;11.63;100.00
49455;BME280;49011;64.658;21.218;2022-08-19T00:33:27;101781.66;;;11.57;100.00
49455;BME280;49011;64.658;21.218;2022-08-19T00:35:55;101775.58;;;11.66;100.00
49455;BME280;49011;64.658;21.218;2022-08-19T00:38:23;101771.66;;;11.75;100.00
49455;BME280;49011;64.658;21.218;2022-08-19T00:40:50;101773.41;;;11.91;100.00
49455;BME280;49011;64.658;21.218;2022-08-19T00:43:19;101773.76;;;11.90;100.00
49455;BME280;49011;64.658;21.218;2022-08-19T00:45:47;101774.85;;;11.97;100.00
49455;BME280;49011;64.658;21.218;2022-08-19T00:48:16;101779.83;;;11.68;100.00
49455;BME280;49011;64.658;21.218;2022-08-19T00:50:45;101774.96;;;11.71;100.00
49455;BME280;49011;64.658;21.218;2022-08-19T00:53:16;101773.65;;;11.70;100.00
49455;BME280;49011;64.658;21.218;2022-08-19T00:55:45;101775.05;;;11.86;100.00
49455;BME280;49011;64.658;21.218;2022-08-19T00:58:15;101772.30;;;11.64;100.00
49455;BME280;49011;64.658;21.218;2022-08-19T01:00:43;101769.16;;;11.62;100.00
49455;BME280;49011;64.658;21.218;2022-08-19T01:03:14;101772.97;;;11.89;100.00
49455;BME280;49011;64.658;21.218;2022-08-19T01:05:45;101772.14;;;11.90;100.00
49455;BME280;49011;64.658;21.218;2022-08-19T01:08:15;101774.15;;;11.90;100.00
49455;BME280;49011;64.658;21.218;2022-08-19T01:10:46;101773.31;;;11.83;100.00
49455;BME280;49011;64.658;21.218;2022-08-19T01:13:15;101770.02;;;12.03;100.00
49455;BME280;49011;64.658;21.218;2022-08-19T01:15:49;101773.46;;;11.87;100.00
49455;BME280;49011;64.658;21.218;2022-08-19T01:18:18;101779.15;;;11.82;100.00
49455;BME280;49011;64.658;21.218;2022-08-19T01:20:46;101776.67;;;11.79;100.00
49455;BME280;49011;64.658;21.218;2022-08-19T01:23:15;101775.59;;;12.07;100.00
49455;BME280;49011;64.658;21.218;2022-08-19T01:25:45;101784.61;;;12.07;100.00
49455;BME280;49011;64.658;21.218;2022-08-19T01:28:17;101785.93;;;12.06;100.00
49455;BME280;49011;64.658;21.218;2022-08-19T01:30:46;101774.87;;;12.05;100.00
49455;BME280;49011;64.658;21.218;2022-08-19T01:33:14;101770.91;;;12.32;100.00
49455;BME280;49011;64.658;21.218;2022-08-19T01:35:42;101775.45;;;12.02;100.00
49455;BME280;49011;64.658;21.218;2022-08-19T01:38:20;101779.75;;;12.08;100.00
49455;BME280;49011;64.658;21.218;2022-08-19T01:40:47;101786.33;;;12.32;100.00
49455;BME280;49011;64.658;21.218;2022-08-19T01:43:15;101782.84;;;12.20;100.00
49455;BME280;49011;64.658;21.218;2022-08-19T01:45:42;101775.93;;;11.82;100.00
49455;BME280;49011;64.658;21.218;2022-08-19T01:48:09;101771.58;;;12.34;100.00
49455;BME280;49011;64.658;21.218;2022-08-19T01:50:36;101763.51;;;12.11;100.00
49455;BME280;49011;64.658;21.218;2022-08-19T01:53:07;101758.47;;;12.10;100.00
49455;BME280;49011;64.658;21.218;2022-08-19T01:55:36;101756.54;;;11.85;100.00
49455;BME280;49011;64.658;21.218;2022-08-19T01:58:05;101760.34;;;12.04;100.00
49455;BME280;49011;64.658;21.218;2022-08-19T02:00:33;101769.88;;;12.18;100.00
49455;BME280;49011;64.658;21.218;2022-08-19T02:03:01;101769.32;;;11.98;100.00
49455;BME280;49011;64.658;21.218;2022-08-19T02:05:28;101772.17;;;11.92;100.00
49455;BME280;49011;64.658;21.218;2022-08-19T02:07:56;101764.58;;;11.88;100.00
49455;BME280;49011;64.658;21.218;2022-08-19T02:10:23;101766.75;;;11.81;100.00
49455;BME280;49011;64.658;21.218;2022-08-19T02:12:51;101762.33;;;11.86;100.00
49455;BME280;49011;64.658;21.218;2022-08-19T02:15:20;101757.75;;;11.86;100.00
49455;BME280;49011;64.658;21.218;2022-08-19T02:17:48;101755.18;;;11.86;100.00
49455;BME280;49011;64.658;21.218;2022-08-19T02:20:15;101755.34;;;11.77;100.00
49455;BME280;49011;64.658;21.218;2022-08-19T02:22:43;101753.71;;;12.01;100.00
49455;BME280;49011;64.658;21.218;2022-08-19T02:25:12;101747.63;;;11.94;100.00
49455;BME280;49011;64.658;21.218;2022-08-19T02:27:42;101750.58;;;11.63;100.00
49455;BME280;49011;64.658;21.218;2022-08-19T02:30:13;101745.68;;;11.68;100.00
49455;BME280;49011;64.658;21.218;2022-08-19T02:32:41;101749.32;;;11.82;100.00
49455;BME280;49011;64.658;21.218;2022-08-19T02:35:09;101757.44;;;12.11;100.00
49455;BME280;49011;64.658;21.218;2022-08-19T02:37:37;101759.34;;;12.06;100.00
49455;BME280;49011;64.658;21.218;2022-08-19T02:40:05;101761.02;;;12.75;100.00
49455;BME280;49011;64.658;21.218;2022-08-19T02:42:33;101766.82;;;12.69;100.00
49455;BME280;49011;64.658;21.218;2022-08-19T02:45:00;101768.77;;;12.55;100.00
49455;BME280;49011;64.658;21.218;2022-08-19T02:47:27;101764.94;;;13.05;100.00
49455;BME280;49011;64.658;21.218;2022-08-19T02:49:54;101765.78;;;13.42;100.00
49455;BME280;49011;64.658;21.218;2022-08-19T02:52:22;101759.48;;;13.18;100.00
49455;BME280;49011;64.658;21.218;2022-08-19T02:54:50;101753.37;;;12.80;100.00
49455;BME280;49011;64.658;21.218;2022-08-19T02:57:17;101747.74;;;12.36;100.00
49455;BME280;49011;64.658;21.218;2022-08-19T02:59:44;101748.08;;;12.48;100.00
49455;BME280;49011;64.658;21.218;2022-08-19T03:02:11;101753.38;;;12.17;100.00
49455;BME280;49011;64.658;21.218;2022-08-19T03:04:39;101748.52;;;12.27;100.00
49455;BME280;49011;64.658;21.218;2022-08-19T03:07:06;101747.85;;;11.81;100.00
49455;BME280;49011;64.658;21.218;2022-08-19T03:09:36;101743.30;;;12.03;100.00
49455;BME280;49011;64.658;21.218;2022-08-19T03:12:05;101742.60;;;12.05;100.00
49455;BME280;49011;64.658;21.218;2022-08-19T03:14:33;101746.38;;;12.37;100.00
49455;BME280;49011;64.658;21.218;2022-08-19T03:17:01;101744.23;;;12.33;100.00
49455;BME280;49011;64.658;21.218;2022-08-19T03:19:28;101741.31;;;12.32;100.00
49455;BME280;49011;64.658;21.218;2022-08-19T03:21:55;101744.25;;;12.08;100.00
49455;BME280;49011;64.658;21.218;2022-08-19T03:24:22;101746.28;;;12.79;100.00
49455;BME280;49011;64.658;21.218;2022-08-19T03:26:54;101753.55;;;12.75;100.00
49455;BME280;49011;64.658;21.218;2022-08-19T03:29:22;101741.76;;;12.84;100.00
49455;BME280;49011;64.658;21.218;2022-08-19T03:31:50;101741.75;;;12.92;100.00
49455;BME280;49011;64.658;21.218;2022-08-19T03:34:23;101751.22;;;12.52;100.00
49455;BME280;49011;64.658;21.218;2022-08-19T03:36:52;101756.38;;;12.06;100.00
49455;BME280;49011;64.658;21.218;2022-08-19T03:39:20;101750.37;;;12.03;100.00
49455;BME280;49011;64.658;21.218;2022-08-19T03:41:49;101750.57;;;12.39;100.00
49455;BME280;49011;64.658;21.218;2022-08-19T03:44:19;101748.60;;;12.88;100.00
49455;BME280;49011;64.658;21.218;2022-08-19T03:46:47;101747.56;;;12.30;100.00
49455;BME280;49011;64.658;21.218;2022-08-19T03:49:15;101747.13;;;12.53;100.00
49455;BME280;49011;64.658;21.218;2022-08-19T03:51:43;101750.03;;;13.20;100.00
49455;BME280;49011;64.658;21.218;2022-08-19T03:54:13;101745.11;;;13.46;100.00
49455;BME280;49011;64.658;21.218;2022-08-19T03:56:43;101742.11;;;14.01;100.00
49455;BME280;49011;64.658;21.218;2022-08-19T03:59:14;101742.59;;;14.25;100.00
49455;BME280;49011;64.658;21.218;2022-08-19T04:01:42;101741.68;;;14.13;99.67
49455;BME280;49011;64.658;21.218;2022-08-19T04:04:10;101739.25;;;14.00;99.33
49455;BME280;49011;64.658;21.218;2022-08-19T04:06:38;101741.15;;;14.35;98.43
49455;BME280;49011;64.658;21.218;2022-08-19T04:09:08;101738.78;;;14.16;97.98
49455;BME280;49011;64.658;21.218;2022-08-19T04:11:39;101735.56;;;13.98;98.61
49455;BME280;49011;64.658;21.218;2022-08-19T04:14:06;101733.79;;;14.39;99.81
49455;BME280;49011;64.658;21.218;2022-08-19T04:16:35;101732.48;;;13.70;99.88
49455;BME280;49011;64.658;21.218;2022-08-19T04:19:03;101732.75;;;13.34;100.00
49455;BME280;49011;64.658;21.218;2022-08-19T04:21:32;101733.14;;;13.49;100.00
49455;BME280;49011;64.658;21.218;2022-08-19T04:23:59;101729.81;;;13.29;100.00
49455;BME280;49011;64.658;21.218;2022-08-19T04:26:30;101727.87;;;14.08;100.00
49455;BME280;49011;64.658;21.218;2022-08-19T04:28:58;101732.99;;;13.91;100.00
49455;BME280;49011;64.658;21.218;2022-08-19T04:31:28;101732.46;;;13.70;100.00
49455;BME280;49011;64.658;21.218;2022-08-19T04:33:59;101734.44;;;13.55;100.00
49455;BME280;49011;64.658;21.218;2022-08-19T04:36:28;101739.17;;;14.24;100.00
49455;BME280;49011;64.658;21.218;2022-08-19T04:38:58;101742.13;;;13.97;100.00
49455;BME280;49011;64.658;21.218;2022-08-19T04:41:27;101741.96;;;13.60;100.00
49455;BME280;49011;64.658;21.218;2022-08-19T04:43:54;101737.97;;;14.11;100.00
49455;BME280;49011;64.658;21.218;2022-08-19T04:46:22;101739.67;;;13.89;100.00
49455;BME280;49011;64.658;21.218;2022-08-19T04:48:51;101738.49;;;14.05;99.90
49455;BME280;49011;64.658;21.218;2022-08-19T04:51:19;101732.73;;;13.74;100.00
49455;BME280;49011;64.658;21.218;2022-08-19T04:53:47;101729.81;;;13.83;100.00
49455;BME280;49011;64.658;21.218;2022-08-19T04:56:16;101729.32;;;14.18;99.42
49455;BME280;49011;64.658;21.218;2022-08-19T04:58:45;101725.51;;;14.17;100.00
49455;BME280;49011;64.658;21.218;2022-08-19T05:01:13;101722.92;;;14.12;100.00
49455;BME280;49011;64.658;21.218;2022-08-19T05:03:42;101720.17;;;13.99;100.00
49455;BME280;49011;64.658;21.218;2022-08-19T05:06:12;101722.24;;;13.92;99.40
49455;BME280;49011;64.658;21.218;2022-08-19T05:08:41;101731.18;;;13.87;100.00
49455;BME280;49011;64.658;21.218;2022-08-19T05:11:12;101740.35;;;13.78;100.00
49455;BME280;49011;64.658;21.218;2022-08-19T05:13:42;101741.48;;;14.23;99.00
49455;BME280;49011;64.658;21.218;2022-08-19T05:16:11;101736.37;;;14.39;100.00
49455;BME280;49011;64.658;21.218;2022-08-19T05:18:40;101735.32;;;14.17;98.82
49455;BME280;49011;64.658;21.218;2022-08-19T05:21:09;101735.21;;;14.36;97.76
49455;BME280;49011;64.658;21.218;2022-08-19T05:23:37;101736.68;;;14.18;98.48
49455;BME280;49011;64.658;21.218;2022-08-19T05:26:05;101737.71;;;14.29;100.00
49455;BME280;49011;64.658;21.218;2022-08-19T05:28:33;101739.53;;;14.58;99.75
49455;BME280;49011;64.658;21.218;2022-08-19T05:31:00;101740.04;;;14.63;97.77
49455;BME280;49011;64.658;21.218;2022-08-19T05:33:27;101739.98;;;14.75;96.54
49455;BME280;49011;64.658;21.218;2022-08-19T05:35:54;101741.12;;;14.75;96.74
49455;BME280;49011;64.658;21.218;2022-08-19T05:38:22;101736.10;;;14.74;96.52
49455;BME280;49011;64.658;21.218;2022-08-19T05:40:49;101736.24;;;14.52;96.73
49455;BME280;49011;64.658;21.218;2022-08-19T05:43:16;101733.92;;;14.89;96.21
49455;BME280;49011;64.658;21.218;2022-08-19T05:45:44;101731.64;;;14.84;95.39
49455;BME280;49011;64.658;21.218;2022-08-19T05:48:13;101733.03;;;14.62;96.49
49455;BME280;49011;64.658;21.218;2022-08-19T05:50:41;101737.78;;;14.80;95.68
49455;BME280;49011;64.658;21.218;2022-08-19T05:53:09;101737.62;;;14.48;97.65
49455;BME280;49011;64.658;21.218;2022-08-19T05:55:36;101739.26;;;13.57;100.00
49455;BME280;49011;64.658;21.218;2022-08-19T05:58:04;101743.31;;;14.23;100.00
49455;BME280;49011;64.658;21.218;2022-08-19T06:00:32;101755.85;;;14.74;98.35
49455;BME280;49011;64.658;21.218;2022-08-19T06:03:00;101764.35;;;14.93;97.62
49455;BME280;49011;64.658;21.218;2022-08-19T06:05:27;101763.53;;;15.30;96.80
49455;BME280;49011;64.658;21.218;2022-08-19T06:07:55;101764.15;;;15.53;95.54
49455;BME280;49011;64.658;21.218;2022-08-19T06:10:23;101764.97;;;15.26;96.04
49455;BME280;49011;64.658;21.218;2022-08-19T06:12:50;101769.96;;;15.59;96.56
49455;BME280;49011;64.658;21.218;2022-08-19T06:15:18;101771.36;;;15.24;98.66
49455;BME280;49011;64.658;21.218;2022-08-19T06:17:45;101774.26;;;15.47;96.60
49455;BME280;49011;64.658;21.218;2022-08-19T06:20:14;101776.46;;;15.77;94.26
49455;BME280;49011;64.658;21.218;2022-08-19T06:22:44;101778.56;;;15.84;94.44
49455;BME280;49011;64.658;21.218;2022-08-19T06:25:13;101771.92;;;16.12;93.90
49455;BME280;49011;64.658;21.218;2022-08-19T06:27:41;101769.48;;;15.78;94.14
49455;BME280;49011;64.658;21.218;2022-08-19T06:30:10;101774.40;;;15.76;93.68
49455;BME280;49011;64.658;21.218;2022-08-19T06:32:37;101785.24;;;15.89;93.09
49455;BME280;49011;64.658;21.218;2022-08-19T06:35:05;101784.14;;;16.14;90.98
49455;BME280;49011;64.658;21.218;2022-08-19T06:37:33;101781.51;;;15.93;92.90
49455;BME280;49011;64.658;21.218;2022-08-19T06:40:01;101780.08;;;16.13;91.33
49455;BME280;49011;64.658;21.218;2022-08-19T06:42:28;101777.97;;;16.00;93.59
49455;BME280;49011;64.658;21.218;2022-08-19T06:44:56;101780.39;;;16.04;93.05
49455;BME280;49011;64.658;21.218;2022-08-19T06:47:23;101773.53;;;16.33;92.49
49455;BME280;49011;64.658;21.218;2022-08-19T06:49:53;101768.36;;;16.15;91.98
49455;BME280;49011;64.658;21.218;2022-08-19T06:52:21;101768.26;;;15.98;91.64
49455;BME280;49011;64.658;21.218;2022-08-19T06:54:49;101761.23;;;15.84;93.70
49455;BME280;49011;64.658;21.218;2022-08-19T06:57:16;101760.35;;;16.15;90.14
49455;BME280;49011;64.658;21.218;2022-08-19T06:59:43;101758.75;;;16.03;90.45
49455;BME280;49011;64.658;21.218;2022-08-19T07:02:10;101755.15;;;16.46;91.06
49455;BME280;49011;64.658;21.218;2022-08-19T07:04:38;101752.99;;;16.33;91.82
49455;BME280;49011;64.658;21.218;2022-08-19T07:07:07;101748.64;;;15.95;93.83
49455;BME280;49011;64.658;21.218;2022-08-19T07:09:35;101747.87;;;15.95;93.76
49455;BME280;49011;64.658;21.218;2022-08-19T07:12:05;101752.04;;;16.16;93.50
49455;BME280;49011;64.658;21.218;2022-08-19T07:14:33;101749.21;;;15.81;93.47
49455;BME280;49011;64.658;21.218;2022-08-19T07:17:01;101741.97;;;15.36;95.29
49455;BME280;49011;64.658;21.218;2022-08-19T07:19:29;101733.42;;;15.52;95.63
49455;BME280;49011;64.658;21.218;2022-08-19T07:21:57;101728.12;;;14.94;99.09
49455;BME280;49011;64.658;21.218;2022-08-19T07:24:26;101724.22;;;13.94;100.00
49455;BME280;49011;64.658;21.218;2022-08-19T07:26:56;101718.26;;;13.67;100.00
49455;BME280;49011;64.658;21.218;2022-08-19T07:29:23;101713.92;;;13.40;100.00
49455;BME280;49011;64.658;21.218;2022-08-19T07:31:52;101712.11;;;12.94;100.00
49455;BME280;49011;64.658;21.218;2022-08-19T07:34:19;101714.62;;;13.06;100.00
49455;BME280;49011;64.658;21.218;2022-08-19T07:36:47;101714.82;;;13.65;100.00
49455;BME280;49011;64.658;21.218;2022-08-19T07:39:17;101716.44;;;13.68;100.00
49455;BME280;49011;64.658;21.218;2022-08-19T07:41:46;101717.47;;;13.05;100.00
49455;BME280;49011;64.658;21.218;2022-08-19T07:44:15;101719.79;;;13.44;100.00
49455;BME280;49011;64.658;21.218;2022-08-19T07:46:45;101723.29;;;13.83;100.00
49455;BME280;49011;64.658;21.218;2022-08-19T07:49:14;101724.79;;;13.67;100.00
49455;BME280;49011;64.658;21.218;2022-08-19T07:51:41;101723.65;;;13.74;100.00
49455;BME280;49011;64.658;21.218;2022-08-19T07:54:08;101713.85;;;13.94;100.00
49455;BME280;49011;64.658;21.218;2022-08-19T07:56:36;101715.00;;;13.56;100.00
49455;BME280;49011;64.658;21.218;2022-08-19T07:59:03;101718.79;;;14.20;100.00
49455;BME280;49011;64.658;21.218;2022-08-19T08:01:31;101712.38;;;13.63;100.00
49455;BME280;49011;64.658;21.218;2022-08-19T08:03:58;101710.96;;;14.21;100.00
49455;BME280;49011;64.658;21.218;2022-08-19T08:06:25;101718.42;;;13.67;100.00
49455;BME280;49011;64.658;21.218;2022-08-19T08:08:53;101730.11;;;13.93;100.00
49455;BME280;49011;64.658;21.218;2022-08-19T08:11:21;101731.96;;;13.91;100.00
49455;BME280;49011;64.658;21.218;2022-08-19T08:13:49;101722.26;;;13.65;100.00
49455;BME280;49011;64.658;21.218;2022-08-19T08:16:16;101720.93;;;14.06;100.00
49455;BME280;49011;64.658;21.218;2022-08-19T08:18:43;101719.10;;;13.88;100.00
49455;BME280;49011;64.658;21.218;2022-08-19T08:21:10;101721.42;;;14.10;100.00
49455;BME280;49011;64.658;21.218;2022-08-19T08:23:37;101715.08;;;14.39;100.00
49455;BME280;49011;64.658;21.218;2022-08-19T08:26:04;101715.24;;;14.36;100.00
49455;BME280;49011;64.658;21.218;2022-08-19T08:28:32;101720.21;;;13.61;100.00
49455;BME280;49011;64.658;21.218;2022-08-19T08:30:59;101726.74;;;15.40;100.00
49455;BME280;49011;64.658;21.218;2022-08-19T08:33:28;101735.19;;;14.59;100.00
49455;BME280;49011;64.658;21.218;2022-08-19T08:35:56;101732.89;;;15.81;100.00
49455;BME280;49011;64.658;21.218;2022-08-19T08:38:24;101741.30;;;15.90;100.00
49455;BME280;49011;64.658;21.218;2022-08-19T08:40:55;101739.36;;;16.11;98.05
49455;BME280;49011;64.658;21.218;2022-08-19T08:43:29;101740.80;;;16.12;99.37
49455;BME280;49011;64.658;21.218;2022-08-19T08:46:01;101744.15;;;15.84;100.00
49455;BME280;49011;64.658;21.218;2022-08-19T08:48:37;101743.58;;;16.05;100.00
49455;BME280;49011;64.658;21.218;2022-08-19T08:51:10;101743.01;;;16.04;99.02
49455;BME280;49011;64.658;21.218;2022-08-19T08:53:40;101749.22;;;16.13;98.56
49455;BME280;49011;64.658;21.218;2022-08-19T08:56:09;101745.64;;;15.53;100.00
49455;BME280;49011;64.658;21.218;2022-08-19T08:58:46;101751.00;;;15.24;100.00
49455;BME280;49011;64.658;21.218;2022-08-19T09:01:15;101744.15;;;15.60;99.15
49455;BME280;49011;64.658;21.218;2022-08-19T09:03:44;101736.10;;;14.97;100.00
49455;BME280;49011;64.658;21.218;2022-08-19T09:06:17;101739.85;;;16.26;95.33
49455;BME280;49011;64.658;21.218;2022-08-19T09:08:51;101731.22;;;15.47;99.28
49455;BME280;49011;64.658;21.218;2022-08-19T09:11:33;101731.58;;;15.79;97.77
49455;BME280;49011;64.658;21.218;2022-08-19T09:14:10;101731.63;;;16.47;95.09
49455;BME280;49011;64.658;21.218;2022-08-19T09:16:42;101733.44;;;15.94;97.45
49455;BME280;49011;64.658;21.218;2022-08-19T09:19:09;101729.57;;;15.36;100.00
49455;BME280;49011;64.658;21.218;2022-08-19T09:21:37;101734.55;;;15.91;96.18
49455;BME280;49011;64.658;21.218;2022-08-19T09:24:05;101732.77;;;16.00;96.99
49455;BME280;49011;64.658;21.218;2022-08-19T09:26:32;101725.30;;;16.43;95.31
49455;BME280;49011;64.658;21.218;2022-08-19T09:29:01;101721.66;;;15.34;97.71
49455;BME280;49011;64.658;21.218;2022-08-19T09:31:29;101719.89;;;15.75;95.98
49455;BME280;49011;64.658;21.218;2022-08-19T09:33:57;101719.06;;;15.56;96.24
49455;BME280;49011;64.658;21.218;2022-08-19T09:36:26;101714.43;;;15.75;96.63
49455;BME280;49011;64.658;21.218;2022-08-19T09:38:55;101713.98;;;15.74;97.53
49455;BME280;49011;64.658;21.218;2022-08-19T09:41:24;101715.92;;;16.59;92.66
49455;BME280;49011;64.658;21.218;2022-08-19T09:43:53;101713.71;;;16.15;95.37
49455;BME280;49011;64.658;21.218;2022-08-19T09:46:22;101715.98;;;16.26;95.56
49455;BME280;49011;64.658;21.218;2022-08-19T09:49:40;101716.91;;;15.66;95.01
49455;BME280;49011;64.658;21.218;2022-08-19T09:52:09;101713.77;;;16.68;90.51
49455;BME280;49011;64.658;21.218;2022-08-19T09:54:37;101712.57;;;16.13;92.98
49455;BME280;49011;64.658;21.218;2022-08-19T09:57:04;101710.05;;;16.38;92.61
49455;BME280;49011;64.658;21.218;2022-08-19T09:59:32;101714.25;;;16.36;93.73
49455;BME280;49011;64.658;21.218;2022-08-19T10:01:59;101716.78;;;16.12;94.29
49455;BME280;49011;64.658;21.218;2022-08-19T10:04:26;101714.31;;;15.94;94.45
49455;BME280;49011;64.658;21.218;2022-08-19T10:06:55;101711.90;;;16.50;93.19
49455;BME280;49011;64.658;21.218;2022-08-19T10:09:23;101707.97;;;16.65;91.66
49455;BME280;49011;64.658;21.218;2022-08-19T10:11:50;101708.28;;;16.21;92.09
49455;BME280;49011;64.658;21.218;2022-08-19T10:14:18;101716.36;;;16.75;89.21
49455;BME280;49011;64.658;21.218;2022-08-19T10:16:45;101720.10;;;17.01;90.13
49455;BME280;49011;64.658;21.218;2022-08-19T10:19:12;101725.70;;;16.48;91.31
49455;BME280;49011;64.658;21.218;2022-08-19T10:21:39;101728.37;;;16.10;91.98
49455;BME280;49011;64.658;21.218;2022-08-19T10:24:06;101728.91;;;16.47;93.60
49455;BME280;49011;64.658;21.218;2022-08-19T10:26:35;101733.88;;;16.02;93.14
49455;BME280;49011;64.658;21.218;2022-08-19T10:29:04;101740.07;;;15.86;93.66
49455;BME280;49011;64.658;21.218;2022-08-19T10:31:33;101742.56;;;15.93;96.89
49455;BME280;49011;64.658;21.218;2022-08-19T10:34:01;101740.48;;;16.02;95.36
49455;BME280;49011;64.658;21.218;2022-08-19T10:36:30;101742.34;;;15.50;95.73
49455;BME280;49011;64.658;21.218;2022-08-19T10:39:00;101742.60;;;15.78;94.81
49455;BME280;49011;64.658;21.218;2022-08-19T10:41:30;101746.17;;;15.35;97.02
49455;BME280;49011;64.658;21.218;2022-08-19T10:43:59;101746.41;;;16.21;95.78
49455;BME280;49011;64.658;21.218;2022-08-19T10:46:28;101749.06;;;16.20;93.29
49455;BME280;49011;64.658;21.218;2022-08-19T10:48:56;101746.54;;;15.90;94.90
49455;BME280;49011;64.658;21.218;2022-08-19T10:51:24;101744.30;;;15.41;98.29
49455;BME280;49011;64.658;21.218;2022-08-19T10:53:52;101745.50;;;15.55;97.48
49455;BME280;49011;64.658;21.218;2022-08-19T10:56:20;101751.10;;;15.70;97.12
49455;BME280;49011;64.658;21.218;2022-08-19T10:58:47;101755.25;;;15.54;98.03
49455;BME280;49011;64.658;21.218;2022-08-19T11:01:15;101755.36;;;14.46;100.00
49455;BME280;49011;64.658;21.218;2022-08-19T11:03:42;101749.98;;;14.89;100.00
49455;BME280;49011;64.658;21.218;2022-08-19T11:06:09;101746.40;;;14.85;100.00
49455;BME280;49011;64.658;21.218;2022-08-19T11:08:37;101744.58;;;15.49;100.00
49455;BME280;49011;64.658;21.218;2022-08-19T11:11:06;101742.40;;;15.18;100.00
49455;BME280;49011;64.658;21.218;2022-08-19T11:13:35;101743.18;;;14.54;100.00
49455;BME280;49011;64.658;21.218;2022-08-19T11:16:06;101742.42;;;14.75;100.00
49455;BME280;49011;64.658;21.218;2022-08-19T11:18:36;101743.35;;;14.30;100.00
49455;BME280;49011;64.658;21.218;2022-08-19T11:21:07;101739.60;;;13.90;100.00
49455;BME280;49011;64.658;21.218;2022-08-19T11:23:34;101735.35;;;14.48;100.00
49455;BME280;49011;64.658;21.218;2022-08-19T11:26:02;101732.66;;;14.41;100.00
49455;BME280;49011;64.658;21.218;2022-08-19T11:28:29;101734.57;;;14.53;100.00
49455;BME280;49011;64.658;21.218;2022-08-19T11:30:56;101740.50;;;14.75;100.00
49455;BME280;49011;64.658;21.218;2022-08-19T11:33:23;101741.22;;;14.68;100.00
49455;BME280;49011;64.658;21.218;2022-08-19T11:35:51;101740.61;;;14.69;100.00
49455;BME280;49011;64.658;21.218;2022-08-19T11:38:18;101737.42;;;13.41;100.00
49455;BME280;49011;64.658;21.218;2022-08-19T11:40:45;101729.81;;;13.87;100.00
49455;BME280;49011;64.658;21.218;2022-08-19T11:43:20;101727.51;;;13.25;100.00
49455;BME280;49011;64.658;21.218;2022-08-19T11:45:47;101724.82;;;12.62;100.00
49455;BME280;49011;64.658;21.218;2022-08-19T11:48:15;101726.85;;;14.00;100.00
49455;BME280;49011;64.658;21.218;2022-08-19T11:50:42;101727.12;;;14.52;100.00
49455;BME280;49011;64.658;21.218;2022-08-19T11:53:09;101730.24;;;13.84;100.00
49455;BME280;49011;64.658;21.218;2022-08-19T11:55:37;101725.34;;;15.00;98.83
49455;BME280;49011;64.658;21.218;2022-08-19T11:58:04;101731.29;;;15.09;97.67
49455;BME280;49011;64.658;21.218;2022-08-19T12:00:31;101732.42;;;15.12;96.06
49455;BME280;49011;64.658;21.218;2022-08-19T12:02:59;101730.36;;;16.04;94.29
49455;BME280;49011;64.658;21.218;2022-08-19T12:05:26;101722.77;;;14.93;95.81
49455;BME280;49011;64.658;21.218;2022-08-19T12:07:54;101723.59;;;16.04;93.16
49455;BME280;49011;64.658;21.218;2022-08-19T12:10:21;101724.28;;;15.13;95.08
49455;BME280;49011;64.658;21.218;2022-08-19T12:12:49;101723.79;;;15.55;94.75
49455;BME280;49011;64.658;21.218;2022-08-19T12:15:17;101727.33;;;15.97;92.68
49455;BME280;49011;64.658;21.218;2022-08-19T12:17:44;101717.87;;;14.95;96.16
49455;BME280;49011;64.658;21.218;2022-08-19T12:20:13;101715.54;;;15.68;95.92
49455;BME280;49011;64.658;21.218;2022-08-19T12:22:40;101710.68;;;14.93;100.00
49455;BME280;49011;64.658;21.218;2022-08-19T12:25:09;101703.63;;;15.90;97.23
49455;BME280;49011;64.658;21.218;2022-08-19T12:27:37;101702.07;;;15.90;94.72
49455;BME280;49011;64.658;21.218;2022-08-19T12:30:08;101700.27;;;16.49;91.35
49455;BME280;49011;64.658;21.218;2022-08-19T12:32:36;101696.92;;;17.01;86.98
49455;BME280;49011;64.658;21.218;2022-08-19T12:35:06;101692.96;;;16.35;90.33
49455;BME280;49011;64.658;21.218;2022-08-19T12:37:34;101684.88;;;17.02;89.28
49455;BME280;49011;64.658;21.218;2022-08-19T12:40:02;101684.79;;;17.20;88.34